Van Kinsbergen — PAKB — position and weather

sailwx.info

Track history (hours):
 
Tides and Currents Weather Stations Pressure Air Temp Water Temp Dewpoint Dewpoint Depression Visibility Wind Speed Wind Dir Waves Ship Positions

Van Kinsbergen

Last reported at 2016-Sep-28 02:22 UTC. Time now 2016-Sep-28 03:31 UTC.
Position N 55°12' E 011°07'.

Length 40 m; draft 3.1 m.

MMSI: 244736000.

Date/timePositionNaut miles runAvg speedWind from/ knotsBaromVisibWave heightAir tempDewpointWater temp
2016-Sep-28 02:22N 55°12' E 011°07'5 6.4
2016-Sep-28 01:33N 55°11' E 011°16'2 1.1
2016-Sep-27 23:34N 55°10' E 011°12'7 1.8
2016-Sep-27 19:33N 55°17' E 011°08'48 9.6
2016-Sep-27 14:33N 54°33' E 010°35'1111.3
2016-Sep-27 13:33N 54°29' E 010°17'19 6.3
2016-Sep-27 10:34N 54°22' E 009°47'58 5.8
2016-Sep-27 00:33N 53°59' E 008°15'32 8.0
2016-Sep-26 20:33N 53°53' E 007°22'9 9.4
2016-Sep-26 19:33N 53°51' E 007°07'4010.1
2016-Sep-26 15:33N 53°41' E 006°01'2512.4
2016-Sep-26 13:33N 53°33' E 005°21'41 8.2
2016-Sep-26 08:33N 52°58' E 004°44'2 0.3
2016-Sep-26 02:30N 52°58' E 004°47'0 0.0
2016-Sep-26 01:33N 52°58' E 004°47'0 0.0
2016-Sep-26 00:33N 52°58' E 004°47'0 0.0
2016-Sep-25 21:33N 52°58' E 004°47'0 0.0
2016-Sep-25 17:30N 52°58' E 004°47'0 0.0
2016-Sep-25 16:33N 52°58' E 004°47'0 0.0
2016-Sep-25 15:33N 52°58' E 004°47'0 0.0
2016-Sep-25 14:33N 52°58' E 004°47'0 0.0
2016-Sep-25 12:33N 52°58' E 004°47'0 0.0
2016-Sep-25 11:33N 52°58' E 004°47'0 0.0
2016-Sep-25 10:33N 52°58' E 004°47'0 0.0
2016-Sep-25 09:33N 52°58' E 004°47'0 0.0
2016-Sep-25 07:33N 52°58' E 004°47'0 0.0
2016-Sep-25 04:33N 52°58' E 004°47'0 0.0
2016-Sep-25 00:33N 52°58' E 004°47'0 0.0
2016-Sep-24 22:33N 52°58' E 004°47'0 0.0
2016-Sep-24 21:33N 52°58' E 004°47'0 0.0
2016-Sep-24 19:33N 52°58' E 004°47'0 0.0
2016-Sep-24 18:33N 52°58' E 004°47'0 0.0
2016-Sep-24 17:33N 52°58' E 004°47'0 0.0
2016-Sep-24 16:33N 52°58' E 004°47'0 0.0
2016-Sep-24 14:33N 52°58' E 004°47'0 0.0
2016-Sep-24 12:27N 52°58' E 004°47'0 0.0
2016-Sep-24 10:33N 52°58' E 004°47'0 0.0
2016-Sep-24 09:30N 52°58' E 004°47'0 0.0
2016-Sep-24 03:33N 52°58' E 004°47'0 0.0
2016-Sep-24 02:30N 52°58' E 004°47'0 0.0
2016-Sep-24 01:33N 52°58' E 004°47'0 0.0
2016-Sep-24 00:33N 52°58' E 004°47'0 0.0
2016-Sep-23 19:33N 52°58' E 004°47'0 0.0
2016-Sep-23 17:33N 52°58' E 004°47'0 0.0
2016-Sep-23 16:33N 52°58' E 004°47'0 0.0
2016-Sep-23 15:33N 52°58' E 004°47'3 1.7
2016-Sep-23 13:34N 53°01' E 004°50'3 0.8
2016-Sep-23 09:25N 52°58' E 004°47'0 0.0
2016-Sep-23 06:31N 52°58' E 004°47'0 0.0
2016-Sep-23 04:28N 52°58' E 004°47'0 0.0
2016-Sep-23 03:31N 52°58' E 004°47'0 0.0
2016-Sep-23 02:31N 52°58' E 004°47'0 0.0
2016-Sep-23 01:31N 52°58' E 004°47'0 0.0
2016-Sep-23 00:31N 52°58' E 004°47'0 0.0
2016-Sep-22 23:31N 52°58' E 004°47'0 0.0
2016-Sep-22 20:31N 52°58' E 004°47'11 1.4
2016-Sep-22 12:32N 53°08' E 004°41'24 0.5
2016-Sep-20 08:33N 53°22' E 005°13'0 0.0
2016-Sep-20 07:30N 53°22' E 005°13'0 0.0
2016-Sep-20 06:30N 53°22' E 005°13'0 0.0
2016-Sep-20 02:33N 53°22' E 005°13'0 0.0
2016-Sep-19 23:15N 53°22' E 005°13'0 0.0
2016-Sep-19 19:30N 53°22' E 005°13'0 0.0
2016-Sep-19 18:30N 53°22' E 005°13'0 0.0
2016-Sep-19 16:24N 53°22' E 005°13'0 0.0
2016-Sep-19 14:33N 53°22' E 005°13'0 0.0
2016-Sep-19 13:24N 53°22' E 005°13'0 0.0
2016-Sep-19 12:33N 53°22' E 005°13'0 0.0
2016-Sep-19 11:24N 53°22' E 005°13'0 0.0
2016-Sep-19 09:33N 53°22' E 005°13'0 0.0
2016-Sep-19 07:30N 53°22' E 005°13'0 0.0
2016-Sep-19 06:33N 53°22' E 005°13'0 0.0
2016-Sep-19 03:24N 53°22' E 005°13'0 0.0
2016-Sep-19 02:30N 53°22' E 005°13'0 0.0
2016-Sep-19 00:30N 53°22' E 005°13'15 2.9
2016-Sep-18 19:25N 53°16' E 004°51'18 4.7
2016-Sep-18 15:31N 52°58' E 004°47'0 0.0
2016-Sep-18 14:31N 52°58' E 004°47'0 0.0
2016-Sep-18 10:31N 52°58' E 004°47'0 0.0
2016-Sep-18 09:31N 52°58' E 004°47'0 0.0
2016-Sep-18 02:31N 52°58' E 004°47'  
Track history (hours):
 
Tides and Currents Weather Stations Pressure Air Temp Water Temp Dewpoint Dewpoint Depression Visibility Wind Speed Wind Dir Waves Ship Positions

Van Kinsbergen

Last reported at 2016-Sep-28 02:22 UTC. Time now 2016-Sep-28 03:31 UTC.
Position N 55°12' E 011°07'.

Length 40 m; draft 3.1 m.

MMSI: 244736000.

Date/timePositionNaut miles runAvg speedWind from/ knotsBaromVisibWave heightAir tempDewpointWater temp
2016-Sep-28 02:22N 55°12' E 011°07'5 6.4
2016-Sep-28 01:33N 55°11' E 011°16'2 1.1
2016-Sep-27 23:34N 55°10' E 011°12'7 1.8
2016-Sep-27 19:33N 55°17' E 011°08'48 9.6
2016-Sep-27 14:33N 54°33' E 010°35'1111.3
2016-Sep-27 13:33N 54°29' E 010°17'19 6.3
2016-Sep-27 10:34N 54°22' E 009°47'58 5.8
2016-Sep-27 00:33N 53°59' E 008°15'32 8.0
2016-Sep-26 20:33N 53°53' E 007°22'9 9.4
2016-Sep-26 19:33N 53°51' E 007°07'4010.1
2016-Sep-26 15:33N 53°41' E 006°01'2512.4
2016-Sep-26 13:33N 53°33' E 005°21'41 8.2
2016-Sep-26 08:33N 52°58' E 004°44'2 0.3
2016-Sep-26 02:30N 52°58' E 004°47'0 0.0
2016-Sep-26 01:33N 52°58' E 004°47'0 0.0
2016-Sep-26 00:33N 52°58' E 004°47'0 0.0
2016-Sep-25 21:33N 52°58' E 004°47'0 0.0
2016-Sep-25 17:30N 52°58' E 004°47'0 0.0
2016-Sep-25 16:33N 52°58' E 004°47'0 0.0
2016-Sep-25 15:33N 52°58' E 004°47'0 0.0
2016-Sep-25 14:33N 52°58' E 004°47'0 0.0
2016-Sep-25 12:33N 52°58' E 004°47'0 0.0
2016-Sep-25 11:33N 52°58' E 004°47'0 0.0
2016-Sep-25 10:33N 52°58' E 004°47'0 0.0
2016-Sep-25 09:33N 52°58' E 004°47'0 0.0
2016-Sep-25 07:33N 52°58' E 004°47'0 0.0
2016-Sep-25 04:33N 52°58' E 004°47'0 0.0
2016-Sep-25 00:33N 52°58' E 004°47'0 0.0
2016-Sep-24 22:33N 52°58' E 004°47'0 0.0
2016-Sep-24 21:33N 52°58' E 004°47'0 0.0
2016-Sep-24 19:33N 52°58' E 004°47'0 0.0
2016-Sep-24 18:33N 52°58' E 004°47'0 0.0
2016-Sep-24 17:33N 52°58' E 004°47'0 0.0
2016-Sep-24 16:33N 52°58' E 004°47'0 0.0
2016-Sep-24 14:33N 52°58' E 004°47'0 0.0
2016-Sep-24 12:27N 52°58' E 004°47'0 0.0
2016-Sep-24 10:33N 52°58' E 004°47'0 0.0
2016-Sep-24 09:30N 52°58' E 004°47'0 0.0
2016-Sep-24 03:33N 52°58' E 004°47'0 0.0
2016-Sep-24 02:30N 52°58' E 004°47'0 0.0
2016-Sep-24 01:33N 52°58' E 004°47'0 0.0
2016-Sep-24 00:33N 52°58' E 004°47'0 0.0
2016-Sep-23 19:33N 52°58' E 004°47'0 0.0
2016-Sep-23 17:33N 52°58' E 004°47'0 0.0
2016-Sep-23 16:33N 52°58' E 004°47'0 0.0
2016-Sep-23 15:33N 52°58' E 004°47'3 1.7
2016-Sep-23 13:34N 53°01' E 004°50'3 0.8
2016-Sep-23 09:25N 52°58' E 004°47'0 0.0
2016-Sep-23 06:31N 52°58' E 004°47'0 0.0
2016-Sep-23 04:28N 52°58' E 004°47'0 0.0
2016-Sep-23 03:31N 52°58' E 004°47'0 0.0
2016-Sep-23 02:31N 52°58' E 004°47'0 0.0
2016-Sep-23 01:31N 52°58' E 004°47'0 0.0
2016-Sep-23 00:31N 52°58' E 004°47'0 0.0
2016-Sep-22 23:31N 52°58' E 004°47'0 0.0
2016-Sep-22 20:31N 52°58' E 004°47'11 1.4
2016-Sep-22 12:32N 53°08' E 004°41'24 0.5
2016-Sep-20 08:33N 53°22' E 005°13'0 0.0
2016-Sep-20 07:30N 53°22' E 005°13'0 0.0
2016-Sep-20 06:30N 53°22' E 005°13'0 0.0
2016-Sep-20 02:33N 53°22' E 005°13'0 0.0
2016-Sep-19 23:15N 53°22' E 005°13'0 0.0
2016-Sep-19 19:30N 53°22' E 005°13'0 0.0
2016-Sep-19 18:30N 53°22' E 005°13'0 0.0
2016-Sep-19 16:24N 53°22' E 005°13'0 0.0
2016-Sep-19 14:33N 53°22' E 005°13'0 0.0
2016-Sep-19 13:24N 53°22' E 005°13'0 0.0
2016-Sep-19 12:33N 53°22' E 005°13'0 0.0
2016-Sep-19 11:24N 53°22' E 005°13'0 0.0
2016-Sep-19 09:33N 53°22' E 005°13'0 0.0
2016-Sep-19 07:30N 53°22' E 005°13'0 0.0
2016-Sep-19 06:33N 53°22' E 005°13'0 0.0
2016-Sep-19 03:24N 53°22' E 005°13'0 0.0
2016-Sep-19 02:30N 53°22' E 005°13'0 0.0
2016-Sep-19 00:30N 53°22' E 005°13'15 2.9
2016-Sep-18 19:25N 53°16' E 004°51'18 4.7
2016-Sep-18 15:31N 52°58' E 004°47'0 0.0
2016-Sep-18 14:31N 52°58' E 004°47'0 0.0
2016-Sep-18 10:31N 52°58' E 004°47'0 0.0
2016-Sep-18 09:31N 52°58' E 004°47'0 0.0
2016-Sep-18 02:31N 52°58' E 004°47'  

Dump ship's entire track history